SBSN Airport Information

Runway Information
Runway 10 Length 7874 ft width 148 ft
Elevation 0 ft Threshold 0 ft Heading 0
Runway 28 Length 7874 ft Width 148 ft
Elevation 0 ft Threshold 0 ft Heading 0
Airport Frequencies
Type APP Name APP Frequency 119.3 MHZ
Type TWR Name TWR Frequency 118.1 MHZ
Airport Navaids
Type VOR-DME Name Santarem Frequency 112300 KHZ
Type NDB Name Santarem Frequency 350 KHZ
Airport Weather Information & NOTAM
ADDS - METARS form results

(0850 UTC 24 April 2018)
 
METAR text: SBSN 240822Z 06011KT 5000 -RA SCT010 BKN015 OVC100 23/23 Q1012
Conditions at: SBSN (SANTAREM INTL AR, BR) observed 0822 UTC 24 April 2018
Temperature: 23.0°C (73°F)
Dewpoint: 23.0°C (73°F) [RH = 100%]
Pressure (altimeter): 29.88 inches Hg (1012.0 mb)
Winds: from the ENE (60 degrees) at 13 MPH (11 knots; 5.7 m/s)
Visibility: 3 miles (5 km)
Ceiling: 1500 feet AGL
Clouds: scattered clouds at 1000 feet AGL
broken clouds at 1500 feet AGL
overcast cloud deck at 10000 feet AGL
Weather: -RA  (light rain)

METAR text: SBSN 240810Z 07021KT 3500 -TSRA BKN006 FEW017CB OVC100 24/24 Q1 012
Conditions at: SBSN (SANTAREM INTL AR, BR) observed 0810 UTC 24 April 2018
Temperature: 24.0°C (75°F)
Dewpoint: 24.0°C (75°F) [RH = 100%]
Pressure (altimeter): missing
Winds: from the ENE (70 degrees) at 24 MPH (21 knots; 10.9 m/s)
Visibility: 2.17 miles (3.49 km)
Ceiling: 600 feet AGL
Clouds: broken clouds at 600 feet AGL
few clouds at 1700 feet AGL
overcast cloud deck at 10000 feet AGL
Weather: -TSRA  (light rain associated with thunderstorm(s))

METAR text: SBSN 240800Z 05007KT 5000 -RA SCT010 BKN015 OVC100 25/24 Q1012
Conditions at: SBSN (SANTAREM INTL AR, BR) observed 0800 UTC 24 April 2018
Temperature: 25.0°C (77°F)
Dewpoint: 24.0°C (75°F) [RH = 94%]
Pressure (altimeter): 29.88 inches Hg (1012.0 mb)
Winds: from the NE (50 degrees) at 8 MPH (7 knots; 3.6 m/s)
Visibility: 3 miles (5 km)
Ceiling: 1500 feet AGL
Clouds: scattered clouds at 1000 feet AGL
broken clouds at 1500 feet AGL
overcast cloud deck at 10000 feet AGL
Weather: -RA  (light rain)